sensor_id;sensor_type;location;lat;lon;timestamp;P1;durP1;ratioP1;P2;durP2;ratioP2
55915;SDS011;41826;53.246;-6.670;2023-01-31T00:01:37;1.70;;;1.00;;
55915;SDS011;41826;53.246;-6.670;2023-01-31T00:04:05;5.78;;;1.23;;
55915;SDS011;41826;53.246;-6.670;2023-01-31T00:06:36;7.78;;;1.13;;
55915;SDS011;41826;53.246;-6.670;2023-01-31T00:09:04;6.90;;;1.45;;
55915;SDS011;41826;53.246;-6.670;2023-01-31T00:11:31;4.93;;;1.10;;
55915;SDS011;41826;53.246;-6.670;2023-01-31T00:13:57;2.95;;;0.75;;
55915;SDS011;41826;53.246;-6.670;2023-01-31T00:16:24;6.72;;;1.20;;
55915;SDS011;41826;53.246;-6.670;2023-01-31T00:18:49;2.78;;;1.02;;
55915;SDS011;41826;53.246;-6.670;2023-01-31T00:23:43;4.88;;;1.05;;
55915;SDS011;41826;53.246;-6.670;2023-01-31T00:26:12;7.07;;;1.08;;
55915;SDS011;41826;53.246;-6.670;2023-01-31T00:28:39;5.93;;;1.13;;
55915;SDS011;41826;53.246;-6.670;2023-01-31T00:31:05;4.47;;;1.10;;
55915;SDS011;41826;53.246;-6.670;2023-01-31T00:33:32;4.55;;;2.13;;
55915;SDS011;41826;53.246;-6.670;2023-01-31T00:36:01;3.42;;;0.80;;
55915;SDS011;41826;53.246;-6.670;2023-01-31T00:38:27;3.72;;;0.90;;
55915;SDS011;41826;53.246;-6.670;2023-01-31T00:40:53;2.42;;;1.00;;
55915;SDS011;41826;53.246;-6.670;2023-01-31T00:43:19;5.45;;;1.10;;
55915;SDS011;41826;53.246;-6.670;2023-01-31T00:45:45;2.85;;;0.90;;
55915;SDS011;41826;53.246;-6.670;2023-01-31T00:48:10;5.43;;;1.85;;
55915;SDS011;41826;53.246;-6.670;2023-01-31T00:50:35;7.53;;;1.85;;
55915;SDS011;41826;53.246;-6.670;2023-01-31T00:53:01;3.70;;;1.10;;
55915;SDS011;41826;53.246;-6.670;2023-01-31T00:55:27;5.75;;;1.30;;
55915;SDS011;41826;53.246;-6.670;2023-01-31T00:57:52;4.30;;;1.48;;
55915;SDS011;41826;53.246;-6.670;2023-01-31T01:00:18;3.13;;;1.30;;
55915;SDS011;41826;53.246;-6.670;2023-01-31T01:02:43;4.88;;;0.93;;
55915;SDS011;41826;53.246;-6.670;2023-01-31T01:05:09;6.32;;;1.00;;
55915;SDS011;41826;53.246;-6.670;2023-01-31T01:07:34;5.78;;;1.30;;
55915;SDS011;41826;53.246;-6.670;2023-01-31T01:09:59;3.08;;;1.13;;
55915;SDS011;41826;53.246;-6.670;2023-01-31T01:12:25;6.95;;;1.25;;
55915;SDS011;41826;53.246;-6.670;2023-01-31T01:14:50;5.68;;;1.20;;
55915;SDS011;41826;53.246;-6.670;2023-01-31T01:17:16;3.95;;;1.48;;
55915;SDS011;41826;53.246;-6.670;2023-01-31T01:19:41;2.65;;;0.95;;
55915;SDS011;41826;53.246;-6.670;2023-01-31T01:22:06;6.45;;;1.27;;
55915;SDS011;41826;53.246;-6.670;2023-01-31T01:24:32;5.38;;;1.23;;
55915;SDS011;41826;53.246;-6.670;2023-01-31T01:26:57;5.90;;;1.30;;
55915;SDS011;41826;53.246;-6.670;2023-01-31T01:29:23;3.92;;;1.30;;
55915;SDS011;41826;53.246;-6.670;2023-01-31T01:31:48;9.35;;;1.83;;
55915;SDS011;41826;53.246;-6.670;2023-01-31T01:34:14;9.90;;;1.45;;
55915;SDS011;41826;53.246;-6.670;2023-01-31T01:36:40;2.00;;;0.95;;
55915;SDS011;41826;53.246;-6.670;2023-01-31T01:39:07;6.82;;;1.55;;
55915;SDS011;41826;53.246;-6.670;2023-01-31T01:41:35;2.38;;;1.10;;
55915;SDS011;41826;53.246;-6.670;2023-01-31T01:44:03;8.73;;;2.05;;
55915;SDS011;41826;53.246;-6.670;2023-01-31T01:46:48;7.60;;;1.58;;
55915;SDS011;41826;53.246;-6.670;2023-01-31T01:52:12;11.52;;;1.90;;
55915;SDS011;41826;53.246;-6.670;2023-01-31T01:54:44;4.63;;;1.45;;
55915;SDS011;41826;53.246;-6.670;2023-01-31T01:57:14;3.72;;;1.42;;
55915;SDS011;41826;53.246;-6.670;2023-01-31T01:59:44;3.65;;;1.38;;
55915;SDS011;41826;53.246;-6.670;2023-01-31T02:02:14;7.45;;;2.22;;
55915;SDS011;41826;53.246;-6.670;2023-01-31T02:04:41;5.60;;;1.45;;
55915;SDS011;41826;53.246;-6.670;2023-01-31T02:07:08;6.60;;;1.20;;
55915;SDS011;41826;53.246;-6.670;2023-01-31T02:09:46;4.57;;;1.55;;
55915;SDS011;41826;53.246;-6.670;2023-01-31T02:12:18;3.75;;;1.63;;
55915;SDS011;41826;53.246;-6.670;2023-01-31T02:14:46;1.90;;;1.40;;
55915;SDS011;41826;53.246;-6.670;2023-01-31T02:17:13;5.03;;;1.30;;
55915;SDS011;41826;53.246;-6.670;2023-01-31T02:26:20;3.53;;;1.25;;
55915;SDS011;41826;53.246;-6.670;2023-01-31T02:36:54;4.03;;;1.08;;
55915;SDS011;41826;53.246;-6.670;2023-01-31T02:39:38;7.45;;;1.58;;
55915;SDS011;41826;53.246;-6.670;2023-01-31T02:45:18;4.20;;;1.10;;
55915;SDS011;41826;53.246;-6.670;2023-01-31T02:48:14;7.18;;;1.58;;
55915;SDS011;41826;53.246;-6.670;2023-01-31T02:53:39;3.25;;;0.93;;
55915;SDS011;41826;53.246;-6.670;2023-01-31T02:56:15;3.58;;;1.30;;
55915;SDS011;41826;53.246;-6.670;2023-01-31T03:04:30;6.07;;;1.05;;
55915;SDS011;41826;53.246;-6.670;2023-01-31T03:07:09;2.38;;;1.38;;
55915;SDS011;41826;53.246;-6.670;2023-01-31T03:18:09;6.20;;;1.10;;
55915;SDS011;41826;53.246;-6.670;2023-01-31T03:20:41;6.55;;;1.40;;
55915;SDS011;41826;53.246;-6.670;2023-01-31T03:23:15;4.07;;;0.82;;
55915;SDS011;41826;53.246;-6.670;2023-01-31T03:25:43;1.38;;;0.85;;
55915;SDS011;41826;53.246;-6.670;2023-01-31T03:28:12;1.65;;;0.68;;
55915;SDS011;41826;53.246;-6.670;2023-01-31T03:30:46;3.33;;;1.03;;
55915;SDS011;41826;53.246;-6.670;2023-01-31T03:33:23;3.50;;;0.68;;
55915;SDS011;41826;53.246;-6.670;2023-01-31T03:38:34;1.50;;;0.82;;
55915;SDS011;41826;53.246;-6.670;2023-01-31T03:41:13;1.73;;;0.80;;
55915;SDS011;41826;53.246;-6.670;2023-01-31T03:43:56;3.22;;;1.10;;
55915;SDS011;41826;53.246;-6.670;2023-01-31T03:46:36;2.67;;;0.85;;
55915;SDS011;41826;53.246;-6.670;2023-01-31T03:49:08;1.35;;;0.68;;
55915;SDS011;41826;53.246;-6.670;2023-01-31T03:51:38;1.70;;;0.80;;
55915;SDS011;41826;53.246;-6.670;2023-01-31T03:54:11;1.35;;;1.13;;
55915;SDS011;41826;53.246;-6.670;2023-01-31T03:57:02;2.35;;;1.02;;
55915;SDS011;41826;53.246;-6.670;2023-01-31T03:59:33;2.60;;;1.00;;
55915;SDS011;41826;53.246;-6.670;2023-01-31T04:02:04;0.85;;;0.57;;
55915;SDS011;41826;53.246;-6.670;2023-01-31T04:04:38;0.50;;;0.50;;
55915;SDS011;41826;53.246;-6.670;2023-01-31T04:07:07;1.33;;;0.75;;
55915;SDS011;41826;53.246;-6.670;2023-01-31T04:09:33;0.90;;;0.65;;
55915;SDS011;41826;53.246;-6.670;2023-01-31T04:11:59;2.08;;;0.45;;
55915;SDS011;41826;53.246;-6.670;2023-01-31T04:14:26;1.65;;;0.50;;
55915;SDS011;41826;53.246;-6.670;2023-01-31T04:16:52;9.20;;;1.08;;
55915;SDS011;41826;53.246;-6.670;2023-01-31T04:19:17;18.38;;;1.77;;
55915;SDS011;41826;53.246;-6.670;2023-01-31T04:21:43;9.32;;;1.20;;
55915;SDS011;41826;53.246;-6.670;2023-01-31T04:24:08;11.43;;;1.55;;
55915;SDS011;41826;53.246;-6.670;2023-01-31T04:26:34;10.27;;;1.58;;
55915;SDS011;41826;53.246;-6.670;2023-01-31T04:29:00;10.20;;;1.52;;
55915;SDS011;41826;53.246;-6.670;2023-01-31T04:31:25;9.98;;;2.17;;
55915;SDS011;41826;53.246;-6.670;2023-01-31T04:33:51;20.00;;;2.20;;
55915;SDS011;41826;53.246;-6.670;2023-01-31T04:36:16;12.63;;;1.67;;
55915;SDS011;41826;53.246;-6.670;2023-01-31T04:38:42;17.17;;;2.63;;
55915;SDS011;41826;53.246;-6.670;2023-01-31T04:41:07;15.68;;;2.90;;
55915;SDS011;41826;53.246;-6.670;2023-01-31T04:43:33;16.33;;;2.70;;
55915;SDS011;41826;53.246;-6.670;2023-01-31T04:45:58;19.02;;;2.20;;
55915;SDS011;41826;53.246;-6.670;2023-01-31T04:48:23;15.68;;;2.95;;
55915;SDS011;41826;53.246;-6.670;2023-01-31T04:50:49;21.83;;;2.22;;
55915;SDS011;41826;53.246;-6.670;2023-01-31T04:53:14;23.40;;;2.80;;
55915;SDS011;41826;53.246;-6.670;2023-01-31T04:55:40;17.98;;;4.10;;
55915;SDS011;41826;53.246;-6.670;2023-01-31T04:58:06;18.92;;;3.38;;
55915;SDS011;41826;53.246;-6.670;2023-01-31T05:00:31;15.90;;;2.72;;
55915;SDS011;41826;53.246;-6.670;2023-01-31T05:02:57;21.70;;;3.30;;
55915;SDS011;41826;53.246;-6.670;2023-01-31T05:05:22;12.05;;;2.10;;
55915;SDS011;41826;53.246;-6.670;2023-01-31T05:07:47;18.83;;;2.42;;
55915;SDS011;41826;53.246;-6.670;2023-01-31T05:10:13;19.23;;;2.40;;
55915;SDS011;41826;53.246;-6.670;2023-01-31T05:12:38;17.08;;;2.17;;
55915;SDS011;41826;53.246;-6.670;2023-01-31T05:15:04;20.25;;;2.63;;
55915;SDS011;41826;53.246;-6.670;2023-01-31T05:17:31;15.45;;;2.72;;
55915;SDS011;41826;53.246;-6.670;2023-01-31T05:19:58;17.73;;;2.40;;
55915;SDS011;41826;53.246;-6.670;2023-01-31T05:22:24;23.48;;;3.03;;
55915;SDS011;41826;53.246;-6.670;2023-01-31T05:24:50;32.17;;;3.38;;
55915;SDS011;41826;53.246;-6.670;2023-01-31T05:27:16;24.10;;;3.55;;
55915;SDS011;41826;53.246;-6.670;2023-01-31T05:29:42;11.40;;;1.63;;
55915;SDS011;41826;53.246;-6.670;2023-01-31T05:32:08;18.73;;;2.35;;
55915;SDS011;41826;53.246;-6.670;2023-01-31T05:34:34;12.77;;;2.53;;
55915;SDS011;41826;53.246;-6.670;2023-01-31T05:37:00;20.08;;;3.03;;
55915;SDS011;41826;53.246;-6.670;2023-01-31T05:39:26;14.57;;;1.65;;
55915;SDS011;41826;53.246;-6.670;2023-01-31T05:41:52;12.35;;;2.28;;
55915;SDS011;41826;53.246;-6.670;2023-01-31T05:44:18;15.80;;;2.35;;
55915;SDS011;41826;53.246;-6.670;2023-01-31T05:46:44;16.40;;;3.35;;
55915;SDS011;41826;53.246;-6.670;2023-01-31T05:49:09;17.00;;;2.63;;
55915;SDS011;41826;53.246;-6.670;2023-01-31T05:51:35;36.78;;;4.45;;
55915;SDS011;41826;53.246;-6.670;2023-01-31T05:54:00;15.35;;;2.05;;
55915;SDS011;41826;53.246;-6.670;2023-01-31T05:56:26;25.98;;;3.45;;
55915;SDS011;41826;53.246;-6.670;2023-01-31T05:58:51;26.73;;;2.83;;
55915;SDS011;41826;53.246;-6.670;2023-01-31T06:01:17;38.35;;;3.20;;
55915;SDS011;41826;53.246;-6.670;2023-01-31T06:03:43;19.75;;;2.47;;
55915;SDS011;41826;53.246;-6.670;2023-01-31T06:06:09;22.55;;;2.78;;
55915;SDS011;41826;53.246;-6.670;2023-01-31T06:08:34;14.57;;;2.00;;
55915;SDS011;41826;53.246;-6.670;2023-01-31T06:11:00;17.35;;;2.42;;
55915;SDS011;41826;53.246;-6.670;2023-01-31T06:13:28;21.08;;;2.65;;
55915;SDS011;41826;53.246;-6.670;2023-01-31T06:15:54;17.75;;;2.92;;
55915;SDS011;41826;53.246;-6.670;2023-01-31T06:18:19;14.02;;;1.77;;
55915;SDS011;41826;53.246;-6.670;2023-01-31T06:20:46;20.00;;;2.80;;
55915;SDS011;41826;53.246;-6.670;2023-01-31T06:23:11;11.55;;;2.08;;
55915;SDS011;41826;53.246;-6.670;2023-01-31T06:25:36;22.38;;;2.65;;
55915;SDS011;41826;53.246;-6.670;2023-01-31T06:28:02;20.02;;;3.08;;
55915;SDS011;41826;53.246;-6.670;2023-01-31T06:30:28;28.73;;;3.35;;
55915;SDS011;41826;53.246;-6.670;2023-01-31T06:32:54;26.17;;;3.47;;
55915;SDS011;41826;53.246;-6.670;2023-01-31T06:35:19;23.65;;;2.83;;
55915;SDS011;41826;53.246;-6.670;2023-01-31T06:37:45;11.35;;;2.00;;
55915;SDS011;41826;53.246;-6.670;2023-01-31T06:40:10;16.23;;;2.42;;
55915;SDS011;41826;53.246;-6.670;2023-01-31T06:42:36;24.83;;;2.65;;
55915;SDS011;41826;53.246;-6.670;2023-01-31T06:45:01;25.05;;;3.50;;
55915;SDS011;41826;53.246;-6.670;2023-01-31T06:47:27;17.20;;;2.10;;
55915;SDS011;41826;53.246;-6.670;2023-01-31T06:49:52;9.85;;;1.75;;
55915;SDS011;41826;53.246;-6.670;2023-01-31T06:52:17;21.58;;;2.97;;
55915;SDS011;41826;53.246;-6.670;2023-01-31T06:54:43;23.25;;;2.58;;
55915;SDS011;41826;53.246;-6.670;2023-01-31T06:57:08;22.33;;;3.63;;
55915;SDS011;41826;53.246;-6.670;2023-01-31T06:59:34;20.92;;;3.60;;
55915;SDS011;41826;53.246;-6.670;2023-01-31T07:01:59;16.33;;;2.42;;
55915;SDS011;41826;53.246;-6.670;2023-01-31T07:04:24;15.95;;;2.20;;
55915;SDS011;41826;53.246;-6.670;2023-01-31T07:06:50;19.70;;;2.75;;
55915;SDS011;41826;53.246;-6.670;2023-01-31T07:09:15;17.33;;;2.50;;
55915;SDS011;41826;53.246;-6.670;2023-01-31T07:11:41;17.35;;;2.05;;
55915;SDS011;41826;53.246;-6.670;2023-01-31T07:14:06;14.07;;;2.30;;
55915;SDS011;41826;53.246;-6.670;2023-01-31T07:16:31;10.93;;;1.85;;
55915;SDS011;41826;53.246;-6.670;2023-01-31T07:18:57;14.48;;;3.63;;
55915;SDS011;41826;53.246;-6.670;2023-01-31T07:21:23;24.88;;;2.75;;
55915;SDS011;41826;53.246;-6.670;2023-01-31T07:23:50;18.05;;;2.35;;
55915;SDS011;41826;53.246;-6.670;2023-01-31T07:26:15;18.90;;;2.75;;
55915;SDS011;41826;53.246;-6.670;2023-01-31T07:28:41;16.17;;;2.10;;
55915;SDS011;41826;53.246;-6.670;2023-01-31T07:31:10;13.13;;;3.05;;
55915;SDS011;41826;53.246;-6.670;2023-01-31T07:33:37;14.00;;;1.58;;
55915;SDS011;41826;53.246;-6.670;2023-01-31T07:36:04;18.83;;;2.15;;
55915;SDS011;41826;53.246;-6.670;2023-01-31T07:38:31;23.20;;;2.75;;
55915;SDS011;41826;53.246;-6.670;2023-01-31T07:41:01;14.82;;;2.78;;
55915;SDS011;41826;53.246;-6.670;2023-01-31T07:43:27;16.38;;;2.47;;
55915;SDS011;41826;53.246;-6.670;2023-01-31T07:45:53;19.20;;;2.40;;
55915;SDS011;41826;53.246;-6.670;2023-01-31T07:48:19;16.75;;;2.65;;
55915;SDS011;41826;53.246;-6.670;2023-01-31T07:50:51;19.67;;;2.30;;
55915;SDS011;41826;53.246;-6.670;2023-01-31T07:53:18;17.17;;;2.08;;
55915;SDS011;41826;53.246;-6.670;2023-01-31T07:55:44;19.42;;;2.33;;
55915;SDS011;41826;53.246;-6.670;2023-01-31T07:58:13;16.20;;;2.22;;
55915;SDS011;41826;53.246;-6.670;2023-01-31T08:00:39;14.48;;;2.10;;
55915;SDS011;41826;53.246;-6.670;2023-01-31T08:03:24;19.77;;;2.30;;
55915;SDS011;41826;53.246;-6.670;2023-01-31T08:06:10;13.70;;;2.20;;
55915;SDS011;41826;53.246;-6.670;2023-01-31T08:08:37;13.18;;;1.67;;
55915;SDS011;41826;53.246;-6.670;2023-01-31T08:11:04;18.42;;;3.65;;
55915;SDS011;41826;53.246;-6.670;2023-01-31T08:13:30;20.17;;;2.35;;
55915;SDS011;41826;53.246;-6.670;2023-01-31T08:15:56;22.77;;;2.30;;
55915;SDS011;41826;53.246;-6.670;2023-01-31T08:18:22;13.55;;;2.10;;
55915;SDS011;41826;53.246;-6.670;2023-01-31T08:20:47;19.98;;;2.58;;
55915;SDS011;41826;53.246;-6.670;2023-01-31T08:23:12;15.05;;;2.13;;
55915;SDS011;41826;53.246;-6.670;2023-01-31T08:25:38;13.48;;;3.33;;
55915;SDS011;41826;53.246;-6.670;2023-01-31T08:28:03;18.27;;;2.63;;
55915;SDS011;41826;53.246;-6.670;2023-01-31T08:30:29;13.38;;;2.30;;
55915;SDS011;41826;53.246;-6.670;2023-01-31T08:32:54;16.77;;;2.40;;
55915;SDS011;41826;53.246;-6.670;2023-01-31T08:35:20;12.73;;;2.53;;
55915;SDS011;41826;53.246;-6.670;2023-01-31T08:37:46;10.73;;;1.52;;
55915;SDS011;41826;53.246;-6.670;2023-01-31T08:40:12;20.73;;;2.05;;
55915;SDS011;41826;53.246;-6.670;2023-01-31T08:42:37;20.80;;;2.17;;
55915;SDS011;41826;53.246;-6.670;2023-01-31T08:45:03;14.60;;;2.45;;
55915;SDS011;41826;53.246;-6.670;2023-01-31T08:47:29;14.57;;;2.20;;
55915;SDS011;41826;53.246;-6.670;2023-01-31T08:49:54;17.52;;;3.13;;
55915;SDS011;41826;53.246;-6.670;2023-01-31T08:52:20;12.85;;;2.42;;
55915;SDS011;41826;53.246;-6.670;2023-01-31T08:54:45;17.45;;;2.47;;
55915;SDS011;41826;53.246;-6.670;2023-01-31T08:57:10;27.63;;;2.55;;
55915;SDS011;41826;53.246;-6.670;2023-01-31T08:59:36;8.13;;;1.73;;
55915;SDS011;41826;53.246;-6.670;2023-01-31T09:02:01;12.95;;;1.95;;
55915;SDS011;41826;53.246;-6.670;2023-01-31T09:04:27;11.05;;;2.20;;
55915;SDS011;41826;53.246;-6.670;2023-01-31T09:06:52;14.15;;;2.05;;
55915;SDS011;41826;53.246;-6.670;2023-01-31T09:09:19;12.80;;;2.13;;
55915;SDS011;41826;53.246;-6.670;2023-01-31T09:11:44;14.85;;;2.67;;
55915;SDS011;41826;53.246;-6.670;2023-01-31T09:14:09;18.65;;;3.72;;
55915;SDS011;41826;53.246;-6.670;2023-01-31T09:16:35;19.63;;;2.90;;
55915;SDS011;41826;53.246;-6.670;2023-01-31T09:19:00;11.73;;;1.65;;
55915;SDS011;41826;53.246;-6.670;2023-01-31T09:21:25;20.38;;;2.70;;
55915;SDS011;41826;53.246;-6.670;2023-01-31T09:23:55;13.15;;;1.92;;
55915;SDS011;41826;53.246;-6.670;2023-01-31T09:26:22;19.30;;;2.28;;
55915;SDS011;41826;53.246;-6.670;2023-01-31T09:28:47;14.23;;;2.20;;
55915;SDS011;41826;53.246;-6.670;2023-01-31T09:31:15;15.70;;;2.22;;
55915;SDS011;41826;53.246;-6.670;2023-01-31T09:33:42;18.95;;;2.08;;
55915;SDS011;41826;53.246;-6.670;2023-01-31T09:36:12;18.48;;;2.65;;
55915;SDS011;41826;53.246;-6.670;2023-01-31T09:38:42;22.98;;;3.35;;
55915;SDS011;41826;53.246;-6.670;2023-01-31T09:41:18;12.68;;;2.38;;
55915;SDS011;41826;53.246;-6.670;2023-01-31T09:44:02;15.40;;;2.95;;
55915;SDS011;41826;53.246;-6.670;2023-01-31T09:46:39;15.27;;;1.88;;
55915;SDS011;41826;53.246;-6.670;2023-01-31T09:49:09;12.25;;;1.90;;
55915;SDS011;41826;53.246;-6.670;2023-01-31T09:51:42;23.23;;;4.10;;
55915;SDS011;41826;53.246;-6.670;2023-01-31T09:54:13;14.48;;;2.35;;
55915;SDS011;41826;53.246;-6.670;2023-01-31T09:56:49;19.98;;;2.42;;
55915;SDS011;41826;53.246;-6.670;2023-01-31T09:59:22;18.73;;;2.75;;
55915;SDS011;41826;53.246;-6.670;2023-01-31T10:07:24;14.23;;;2.97;;
55915;SDS011;41826;53.246;-6.670;2023-01-31T10:12:35;19.65;;;2.55;;
55915;SDS011;41826;53.246;-6.670;2023-01-31T10:17:58;11.30;;;2.05;;
55915;SDS011;41826;53.246;-6.670;2023-01-31T10:20:37;17.02;;;2.53;;
55915;SDS011;41826;53.246;-6.670;2023-01-31T10:23:28;15.32;;;2.25;;
55915;SDS011;41826;53.246;-6.670;2023-01-31T10:31:09;16.92;;;3.00;;
55915;SDS011;41826;53.246;-6.670;2023-01-31T10:33:50;15.80;;;2.80;;
55915;SDS011;41826;53.246;-6.670;2023-01-31T10:44:30;17.08;;;2.85;;
55915;SDS011;41826;53.246;-6.670;2023-01-31T10:46:57;18.65;;;2.38;;
55915;SDS011;41826;53.246;-6.670;2023-01-31T10:49:24;22.85;;;2.70;;
55915;SDS011;41826;53.246;-6.670;2023-01-31T10:57:05;19.55;;;2.70;;
55915;SDS011;41826;53.246;-6.670;2023-01-31T10:59:35;22.50;;;3.22;;
55915;SDS011;41826;53.246;-6.670;2023-01-31T11:02:03;20.50;;;2.15;;
55915;SDS011;41826;53.246;-6.670;2023-01-31T11:04:30;21.58;;;2.85;;
55915;SDS011;41826;53.246;-6.670;2023-01-31T11:07:00;22.25;;;2.70;;
55915;SDS011;41826;53.246;-6.670;2023-01-31T11:09:28;21.80;;;3.35;;
55915;SDS011;41826;53.246;-6.670;2023-01-31T11:11:58;13.40;;;3.05;;
55915;SDS011;41826;53.246;-6.670;2023-01-31T11:14:25;19.67;;;2.92;;
55915;SDS011;41826;53.246;-6.670;2023-01-31T11:17:24;20.85;;;2.90;;
55915;SDS011;41826;53.246;-6.670;2023-01-31T11:19:49;22.77;;;2.63;;
55915;SDS011;41826;53.246;-6.670;2023-01-31T11:22:33;14.02;;;2.47;;
55915;SDS011;41826;53.246;-6.670;2023-01-31T11:25:02;18.23;;;2.80;;
55915;SDS011;41826;53.246;-6.670;2023-01-31T11:27:41;21.50;;;3.42;;
55915;SDS011;41826;53.246;-6.670;2023-01-31T11:32:49;21.73;;;3.00;;
55915;SDS011;41826;53.246;-6.670;2023-01-31T11:37:54;19.98;;;3.28;;
55915;SDS011;41826;53.246;-6.670;2023-01-31T11:40:26;16.92;;;2.70;;
55915;SDS011;41826;53.246;-6.670;2023-01-31T11:45:24;25.42;;;2.95;;
55915;SDS011;41826;53.246;-6.670;2023-01-31T11:50:33;20.90;;;2.72;;
55915;SDS011;41826;53.246;-6.670;2023-01-31T11:53:03;17.13;;;3.25;;
55915;SDS011;41826;53.246;-6.670;2023-01-31T11:55:41;17.55;;;2.63;;
55915;SDS011;41826;53.246;-6.670;2023-01-31T11:58:12;15.90;;;2.88;;
55915;SDS011;41826;53.246;-6.670;2023-01-31T12:00:50;9.77;;;2.10;;
55915;SDS011;41826;53.246;-6.670;2023-01-31T12:03:15;17.63;;;2.70;;
55915;SDS011;41826;53.246;-6.670;2023-01-31T12:05:44;21.52;;;3.42;;
55915;SDS011;41826;53.246;-6.670;2023-01-31T12:08:33;23.10;;;3.15;;
55915;SDS011;41826;53.246;-6.670;2023-01-31T12:11:49;22.63;;;2.58;;
55915;SDS011;41826;53.246;-6.670;2023-01-31T12:14:00;17.13;;;2.75;;
55915;SDS011;41826;53.246;-6.670;2023-01-31T12:16:31;21.88;;;2.85;;
55915;SDS011;41826;53.246;-6.670;2023-01-31T12:21:47;16.60;;;2.85;;
55915;SDS011;41826;53.246;-6.670;2023-01-31T12:46:01;18.50;;;3.03;;
55915;SDS011;41826;53.246;-6.670;2023-01-31T13:07:32;18.33;;;3.28;;
55915;SDS011;41826;53.246;-6.670;2023-01-31T13:10:31;15.35;;;2.85;;
55915;SDS011;41826;53.246;-6.670;2023-01-31T13:13:00;18.77;;;2.65;;
55915;SDS011;41826;53.246;-6.670;2023-01-31T13:15:31;18.83;;;2.85;;
55915;SDS011;41826;53.246;-6.670;2023-01-31T13:18:05;10.90;;;2.58;;
55915;SDS011;41826;53.246;-6.670;2023-01-31T13:23:16;19.38;;;4.78;;
55915;SDS011;41826;53.246;-6.670;2023-01-31T13:25:52;21.58;;;2.80;;
55915;SDS011;41826;53.246;-6.670;2023-01-31T13:28:22;23.88;;;2.88;;
55915;SDS011;41826;53.246;-6.670;2023-01-31T13:30:55;16.55;;;2.47;;
55915;SDS011;41826;53.246;-6.670;2023-01-31T13:38:49;13.23;;;2.70;;
55915;SDS011;41826;53.246;-6.670;2023-01-31T13:41:34;9.77;;;1.92;;
55915;SDS011;41826;53.246;-6.670;2023-01-31T13:44:01;18.90;;;2.65;;
55915;SDS011;41826;53.246;-6.670;2023-01-31T13:46:37;15.00;;;2.38;;
55915;SDS011;41826;53.246;-6.670;2023-01-31T13:49:15;17.80;;;2.58;;
55915;SDS011;41826;53.246;-6.670;2023-01-31T13:52:31;19.00;;;2.53;;
55915;SDS011;41826;53.246;-6.670;2023-01-31T13:54:56;15.02;;;2.08;;
55915;SDS011;41826;53.246;-6.670;2023-01-31T13:57:33;18.08;;;2.42;;
55915;SDS011;41826;53.246;-6.670;2023-01-31T14:03:07;21.35;;;2.80;;
55915;SDS011;41826;53.246;-6.670;2023-01-31T14:16:42;17.98;;;3.17;;
55915;SDS011;41826;53.246;-6.670;2023-01-31T14:21:54;19.20;;;3.30;;
55915;SDS011;41826;53.246;-6.670;2023-01-31T14:27:25;23.45;;;3.28;;
55915;SDS011;41826;53.246;-6.670;2023-01-31T14:29:56;20.42;;;3.17;;
55915;SDS011;41826;53.246;-6.670;2023-01-31T14:32:29;14.18;;;2.47;;
55915;SDS011;41826;53.246;-6.670;2023-01-31T14:46:03;16.55;;;3.25;;
55915;SDS011;41826;53.246;-6.670;2023-01-31T14:48:45;18.42;;;2.88;;
55915;SDS011;41826;53.246;-6.670;2023-01-31T14:54:14;16.73;;;2.53;;
55915;SDS011;41826;53.246;-6.670;2023-01-31T14:59:42;16.25;;;3.67;;
55915;SDS011;41826;53.246;-6.670;2023-01-31T15:05:00;15.32;;;3.17;;
55915;SDS011;41826;53.246;-6.670;2023-01-31T15:07:28;14.37;;;3.13;;
55915;SDS011;41826;53.246;-6.670;2023-01-31T15:09:54;15.10;;;4.38;;
55915;SDS011;41826;53.246;-6.670;2023-01-31T15:18:00;13.07;;;2.75;;
55915;SDS011;41826;53.246;-6.670;2023-01-31T15:20:37;31.08;;;3.33;;
55915;SDS011;41826;53.246;-6.670;2023-01-31T15:23:10;17.23;;;2.72;;
55915;SDS011;41826;53.246;-6.670;2023-01-31T15:25:42;12.27;;;2.00;;
55915;SDS011;41826;53.246;-6.670;2023-01-31T15:28:11;16.38;;;2.67;;
55915;SDS011;41826;53.246;-6.670;2023-01-31T15:30:41;12.63;;;2.45;;
55915;SDS011;41826;53.246;-6.670;2023-01-31T15:35:47;13.07;;;2.25;;
55915;SDS011;41826;53.246;-6.670;2023-01-31T15:41:05;17.45;;;3.38;;
55915;SDS011;41826;53.246;-6.670;2023-01-31T15:43:40;16.40;;;2.72;;
55915;SDS011;41826;53.246;-6.670;2023-01-31T15:48:55;11.48;;;2.53;;
55915;SDS011;41826;53.246;-6.670;2023-01-31T15:51:21;22.10;;;2.50;;
55915;SDS011;41826;53.246;-6.670;2023-01-31T15:53:47;15.02;;;2.72;;
55915;SDS011;41826;53.246;-6.670;2023-01-31T15:56:23;15.35;;;2.55;;
55915;SDS011;41826;53.246;-6.670;2023-01-31T15:58:52;14.02;;;2.55;;
55915;SDS011;41826;53.246;-6.670;2023-01-31T16:01:19;13.07;;;3.10;;
55915;SDS011;41826;53.246;-6.670;2023-01-31T16:03:49;19.73;;;2.70;;
55915;SDS011;41826;53.246;-6.670;2023-01-31T16:06:32;14.82;;;2.65;;
55915;SDS011;41826;53.246;-6.670;2023-01-31T16:09:01;18.35;;;2.47;;
55915;SDS011;41826;53.246;-6.670;2023-01-31T16:11:29;39.70;;;13.65;;
55915;SDS011;41826;53.246;-6.670;2023-01-31T16:13:57;21.83;;;3.13;;
55915;SDS011;41826;53.246;-6.670;2023-01-31T16:16:26;16.55;;;2.90;;
55915;SDS011;41826;53.246;-6.670;2023-01-31T16:18:54;13.82;;;3.20;;
55915;SDS011;41826;53.246;-6.670;2023-01-31T16:21:28;17.30;;;2.92;;
55915;SDS011;41826;53.246;-6.670;2023-01-31T16:24:39;12.05;;;2.67;;
55915;SDS011;41826;53.246;-6.670;2023-01-31T16:26:58;10.18;;;2.25;;
55915;SDS011;41826;53.246;-6.670;2023-01-31T16:29:32;17.73;;;3.00;;
55915;SDS011;41826;53.246;-6.670;2023-01-31T16:32:19;11.25;;;3.35;;
55915;SDS011;41826;53.246;-6.670;2023-01-31T16:37:32;12.27;;;2.17;;
55915;SDS011;41826;53.246;-6.670;2023-01-31T16:40:04;16.40;;;3.22;;
55915;SDS011;41826;53.246;-6.670;2023-01-31T16:43:08;7.15;;;2.72;;
55915;SDS011;41826;53.246;-6.670;2023-01-31T16:45:56;14.95;;;2.30;;
55915;SDS011;41826;53.246;-6.670;2023-01-31T16:48:26;10.60;;;2.80;;
55915;SDS011;41826;53.246;-6.670;2023-01-31T16:50:54;9.38;;;2.47;;
55915;SDS011;41826;53.246;-6.670;2023-01-31T16:53:33;16.90;;;2.58;;
55915;SDS011;41826;53.246;-6.670;2023-01-31T16:58:46;23.05;;;3.25;;
55915;SDS011;41826;53.246;-6.670;2023-01-31T17:01:22;12.70;;;2.17;;
55915;SDS011;41826;53.246;-6.670;2023-01-31T17:06:34;14.05;;;2.28;;
55915;SDS011;41826;53.246;-6.670;2023-01-31T17:09:00;13.60;;;3.00;;
55915;SDS011;41826;53.246;-6.670;2023-01-31T17:11:26;26.25;;;2.80;;
55915;SDS011;41826;53.246;-6.670;2023-01-31T17:13:52;13.30;;;2.72;;
55915;SDS011;41826;53.246;-6.670;2023-01-31T17:16:21;27.02;;;5.38;;
55915;SDS011;41826;53.246;-6.670;2023-01-31T17:18:52;11.68;;;2.53;;
55915;SDS011;41826;53.246;-6.670;2023-01-31T17:21:20;15.48;;;2.65;;
55915;SDS011;41826;53.246;-6.670;2023-01-31T17:23:47;14.60;;;2.70;;
55915;SDS011;41826;53.246;-6.670;2023-01-31T17:26:16;21.65;;;4.35;;
55915;SDS011;41826;53.246;-6.670;2023-01-31T17:28:43;16.38;;;3.22;;
55915;SDS011;41826;53.246;-6.670;2023-01-31T17:31:14;11.02;;;2.58;;
55915;SDS011;41826;53.246;-6.670;2023-01-31T17:33:45;11.65;;;2.38;;
55915;SDS011;41826;53.246;-6.670;2023-01-31T17:36:11;11.70;;;2.70;;
55915;SDS011;41826;53.246;-6.670;2023-01-31T17:38:37;14.18;;;2.33;;
55915;SDS011;41826;53.246;-6.670;2023-01-31T17:41:02;15.98;;;2.95;;
55915;SDS011;41826;53.246;-6.670;2023-01-31T17:43:28;19.42;;;2.72;;
55915;SDS011;41826;53.246;-6.670;2023-01-31T17:45:53;13.60;;;2.72;;
55915;SDS011;41826;53.246;-6.670;2023-01-31T17:48:19;16.80;;;2.25;;
55915;SDS011;41826;53.246;-6.670;2023-01-31T17:50:44;17.67;;;3.90;;
55915;SDS011;41826;53.246;-6.670;2023-01-31T17:53:13;14.88;;;3.20;;
55915;SDS011;41826;53.246;-6.670;2023-01-31T17:55:39;20.33;;;2.70;;